createdAt,value
2018-05-16T00:00:48.136Z,10.70
2018-05-16T00:04:50.655Z,13.63
2018-05-16T00:08:53.957Z,8.90
2018-05-16T00:12:57.256Z,9.30
2018-05-16T00:17:00.562Z,10.93
2018-05-16T00:21:03.864Z,9.23
2018-05-16T00:25:07.148Z,11.17
2018-05-16T00:29:09.681Z,8.30
2018-05-16T00:33:12.261Z,7.47
2018-05-16T00:37:14.804Z,6.63
2018-05-16T00:41:17.346Z,6.00
2018-05-16T00:45:19.852Z,6.57
2018-05-16T00:49:22.401Z,8.07
2018-05-16T00:53:24.941Z,9.87
2018-05-16T00:57:28.270Z,8.83
2018-05-16T01:01:31.598Z,10.03
2018-05-16T01:05:34.118Z,13.17
2018-05-16T01:09:36.794Z,5.30
2018-05-16T01:13:39.346Z,7.13
2018-05-16T01:17:41.879Z,7.70
2018-05-16T01:21:44.411Z,8.30
2018-05-16T01:25:47.679Z,9.07
2018-05-16T01:29:50.216Z,10.27
2018-05-16T01:33:52.747Z,10.10
2018-05-16T01:37:55.271Z,9.17
2018-05-16T01:41:57.801Z,6.37
2018-05-16T01:46:00.312Z,5.10
2018-05-16T01:50:02.857Z,6.07
2018-05-16T01:54:05.406Z,8.00
2018-05-16T01:58:08.747Z,9.67
2018-05-16T02:02:11.283Z,10.17
2018-05-16T02:06:14.569Z,8.80
2018-05-16T02:10:17.100Z,9.67
2018-05-16T02:14:19.622Z,9.93
2018-05-16T02:18:22.234Z,10.33
2018-05-16T02:22:24.725Z,9.40
2018-05-16T02:26:27.995Z,8.50
2018-05-16T02:30:30.528Z,8.00
2018-05-16T02:34:33.069Z,9.80
2018-05-16T02:38:35.599Z,14.30
2018-05-16T02:42:38.145Z,34.80
2018-05-16T02:46:40.699Z,27.00
2018-05-16T02:50:43.230Z,25.67
2018-05-16T02:54:46.532Z,11.70
2018-05-16T02:58:49.067Z,10.30
2018-05-16T03:02:52.437Z,6.50
2018-05-16T03:06:54.920Z,9.63
2018-05-16T03:10:58.196Z,8.13
2018-05-16T03:15:00.731Z,10.17
2018-05-16T03:19:03.263Z,9.70
2018-05-16T03:23:05.795Z,11.60
2018-05-16T03:27:08.338Z,16.10
2018-05-16T03:31:10.856Z,10.33
2018-05-16T03:35:13.390Z,8.17
2018-05-16T03:39:15.933Z,14.03
2018-05-16T03:43:18.479Z,17.17
2018-05-16T03:47:21.029Z,11.73
2018-05-16T03:51:23.563Z,19.93
2018-05-16T03:55:26.859Z,13.27
2018-05-16T03:59:42.072Z,29.63
2018-05-16T04:03:56.452Z,126.77
2018-05-16T04:07:58.996Z,164.30
2018-05-16T04:12:02.284Z,246.53
2018-05-16T04:16:04.824Z,130.93
2018-05-16T04:20:07.372Z,143.00
2018-05-16T04:24:10.673Z,89.47
2018-05-16T04:28:13.984Z,35.87
2018-05-16T04:32:17.262Z,37.70
2018-05-16T04:36:19.805Z,15.50
2018-05-16T04:40:22.339Z,14.60
2018-05-16T04:44:25.932Z,16.50
2018-05-16T04:48:28.540Z,26.63
2018-05-16T04:52:31.845Z,28.03
2018-05-16T04:56:35.145Z,33.27
2018-05-16T05:00:38.454Z,39.13
2018-05-16T05:04:41.756Z,50.97
2018-05-16T05:08:45.055Z,34.27
2018-05-16T05:12:48.359Z,24.43
2018-05-16T05:16:51.657Z,17.40
2018-05-16T05:20:54.968Z,23.30
2018-05-16T05:24:58.272Z,19.00
2018-05-16T05:29:01.569Z,20.13
2018-05-16T05:33:04.103Z,23.80
2018-05-16T05:37:06.617Z,19.37
2018-05-16T05:41:09.183Z,21.17
2018-05-16T05:45:11.713Z,19.70
2018-05-16T05:49:15.100Z,22.03
2018-05-16T05:53:17.565Z,22.93
2018-05-16T05:57:20.080Z,25.23
2018-05-16T06:01:23.384Z,26.27
2018-05-16T06:05:26.708Z,23.70
2018-05-16T06:09:29.263Z,26.87
2018-05-16T06:13:32.568Z,27.63
2018-05-16T06:17:35.858Z,27.77
2018-05-16T06:21:38.396Z,29.67
2018-05-16T06:25:40.936Z,25.30
2018-05-16T06:29:44.247Z,26.53
2018-05-16T06:33:47.711Z,26.97
2018-05-16T06:37:50.253Z,24.80
2018-05-16T06:41:52.802Z,26.70
2018-05-16T06:45:55.368Z,23.93
2018-05-16T06:49:57.931Z,25.60
2018-05-16T06:54:00.500Z,23.73
2018-05-16T06:58:04.193Z,24.80
2018-05-16T07:02:07.503Z,29.57
2018-05-16T07:06:10.812Z,30.43
2018-05-16T07:10:13.364Z,28.50
2018-05-16T07:14:15.916Z,25.43
2018-05-16T07:18:18.471Z,30.37
2018-05-16T07:22:21.013Z,26.63
2018-05-16T07:26:23.551Z,26.27
2018-05-16T07:30:26.105Z,27.10
2018-05-16T07:34:29.437Z,26.57
2018-05-16T07:38:31.985Z,27.37
2018-05-16T07:42:34.519Z,28.67
2018-05-16T07:46:37.064Z,27.37
2018-05-16T07:50:40.397Z,28.00
2018-05-16T07:54:42.952Z,27.37
2018-05-16T07:58:46.256Z,23.40
2018-05-16T08:02:49.544Z,22.17
2018-05-16T08:06:52.075Z,21.40
2018-05-16T08:10:54.615Z,21.73
2018-05-16T08:14:57.147Z,23.03
2018-05-16T08:18:59.690Z,22.50
2018-05-16T08:23:02.226Z,20.07
2018-05-16T08:27:04.759Z,19.90
2018-05-16T08:31:07.409Z,19.73
2018-05-16T08:35:09.883Z,25.83
2018-05-16T08:39:12.428Z,20.30
2018-05-16T08:43:15.715Z,19.43
2018-05-16T08:47:18.256Z,17.93
2018-05-16T08:51:20.803Z,16.33
2018-05-16T08:55:24.107Z,19.27
2018-05-16T08:59:26.651Z,22.37
2018-05-16T09:03:29.172Z,19.53
2018-05-16T09:07:32.479Z,18.27
2018-05-16T09:11:35.016Z,18.87
2018-05-16T09:15:37.619Z,18.00
2018-05-16T09:19:40.168Z,15.27
2018-05-16T09:23:42.690Z,15.90
2018-05-16T09:27:45.228Z,17.40
2018-05-16T09:31:47.769Z,15.47
2018-05-16T09:35:50.303Z,19.47
2018-05-16T09:39:52.842Z,16.07
2018-05-16T09:43:55.368Z,21.20
2018-05-16T09:47:57.908Z,19.30
2018-05-16T09:52:00.443Z,17.17
2018-05-16T09:56:02.984Z,17.53
2018-05-16T10:00:06.291Z,18.27
2018-05-16T10:04:09.601Z,17.83
2018-05-16T10:08:12.135Z,17.23
2018-05-16T10:12:14.675Z,17.23
2018-05-16T10:16:17.971Z,16.97
2018-05-16T10:20:21.324Z,16.13
2018-05-16T10:24:23.863Z,17.13
2018-05-16T10:28:27.148Z,19.93
2018-05-16T10:32:29.716Z,19.03
2018-05-16T10:36:32.264Z,22.60
2018-05-16T10:40:34.809Z,17.90
2018-05-16T10:44:38.119Z,18.80
2018-05-16T10:48:41.400Z,22.07
2018-05-16T10:52:43.949Z,15.17
2018-05-16T10:56:46.480Z,17.03
2018-05-16T11:00:49.024Z,17.77
2018-05-16T11:04:51.572Z,16.03
2018-05-16T11:08:54.860Z,17.37
2018-05-16T11:12:58.164Z,20.23
2018-05-16T11:17:05.275Z,15.90
2018-05-16T11:21:07.809Z,15.77
2018-05-16T11:25:10.349Z,15.87
2018-05-16T11:29:12.868Z,19.10
2018-05-16T11:33:15.404Z,18.47
2018-05-16T11:37:18.721Z,18.33
2018-05-16T11:41:21.457Z,18.80
2018-05-16T11:45:24.056Z,18.70
2018-05-16T11:49:26.588Z,20.47
2018-05-16T11:53:29.131Z,19.43
2018-05-16T11:57:31.684Z,19.53
2018-05-16T12:01:34.231Z,20.57
2018-05-16T12:05:36.773Z,19.03
2018-05-16T12:09:39.305Z,23.53
2018-05-16T12:13:41.861Z,19.33
2018-05-16T12:17:44.410Z,20.93
2018-05-16T12:21:47.028Z,22.67
2018-05-16T12:25:49.531Z,20.23
2018-05-16T12:29:52.082Z,23.77
2018-05-16T12:33:54.630Z,20.33
2018-05-16T12:37:57.175Z,20.63
2018-05-16T12:42:00.492Z,19.77
2018-05-16T12:46:03.045Z,26.37
2018-05-16T12:50:05.588Z,21.77
2018-05-16T12:54:08.119Z,24.43
2018-05-16T12:58:10.664Z,19.43
2018-05-16T13:02:13.207Z,18.40
2018-05-16T13:06:16.527Z,17.87
2018-05-16T13:10:19.073Z,18.17
2018-05-16T13:14:21.658Z,16.60
2018-05-16T13:18:24.176Z,16.63
2018-05-16T13:22:26.720Z,17.97
2018-05-16T13:26:29.276Z,19.53
2018-05-16T13:30:31.883Z,15.67
2018-05-16T13:34:34.417Z,16.77
2018-05-16T13:38:36.984Z,15.60
2018-05-16T13:42:40.369Z,16.70
2018-05-16T13:46:42.928Z,16.03
2018-05-16T13:50:45.629Z,16.17
2018-05-16T13:54:48.351Z,18.67
2018-05-16T13:58:51.044Z,19.30
2018-05-16T14:02:54.952Z,15.20
2018-05-16T14:06:59.589Z,16.67
2018-05-16T14:11:02.309Z,20.50
2018-05-16T14:15:06.000Z,16.17
2018-05-16T14:19:08.674Z,15.20
2018-05-16T14:23:12.015Z,14.33
2018-05-16T14:27:14.559Z,17.83
2018-05-16T14:31:17.114Z,16.80
2018-05-16T14:35:19.639Z,18.43
2018-05-16T14:39:22.951Z,17.07
2018-05-16T14:43:26.265Z,17.10
2018-05-16T14:47:32.713Z,15.90
2018-05-16T14:51:35.252Z,17.87
2018-05-16T14:55:37.772Z,23.07
2018-05-16T14:59:40.332Z,16.77
2018-05-16T15:03:42.896Z,25.60
2018-05-16T15:07:45.438Z,24.77
2018-05-16T15:11:47.980Z,18.67
2018-05-16T15:15:50.519Z,20.07
2018-05-16T15:19:54.566Z,19.63
2018-05-16T15:23:57.107Z,21.13
2018-05-16T15:27:59.656Z,21.77
2018-05-16T15:32:02.205Z,18.63
2018-05-16T15:36:04.748Z,17.87
2018-05-16T15:40:07.281Z,18.70
2018-05-16T15:44:10.040Z,16.10
2018-05-16T15:48:12.594Z,15.43
2018-05-16T15:52:15.137Z,19.83
2018-05-16T15:56:18.444Z,17.20
2018-05-16T16:00:20.977Z,19.83
2018-05-16T16:04:23.524Z,17.23
2018-05-16T16:08:26.084Z,13.47
2018-05-16T16:12:29.388Z,12.67
2018-05-16T16:16:32.838Z,11.00
2018-05-16T16:20:36.191Z,13.50
2018-05-16T16:24:38.728Z,9.07
2018-05-16T16:28:41.264Z,9.53
2018-05-16T16:32:44.568Z,9.87
2018-05-16T16:36:47.868Z,9.67
2018-05-16T16:40:51.182Z,8.70
2018-05-16T16:44:54.543Z,10.33
2018-05-16T16:48:57.048Z,10.70
2018-05-16T16:52:59.584Z,7.93
2018-05-16T16:57:02.154Z,10.73
2018-05-16T17:01:04.679Z,8.83
2018-05-16T17:05:07.224Z,13.20
2018-05-16T17:09:09.766Z,11.70
2018-05-16T17:13:13.032Z,11.93
2018-05-16T17:17:16.343Z,12.03
2018-05-16T17:21:18.856Z,12.10
2018-05-16T17:25:21.384Z,17.20
2018-05-16T17:29:25.707Z,14.07
2018-05-16T17:33:28.231Z,17.53
2018-05-16T17:37:30.772Z,17.43
2018-05-16T17:41:34.083Z,27.10
2018-05-16T17:45:36.600Z,24.17
2018-05-16T17:49:39.139Z,23.23
2018-05-16T17:53:42.518Z,21.20
2018-05-16T17:57:45.004Z,23.70
2018-05-16T18:01:47.521Z,27.60
2018-05-16T18:05:50.059Z,22.57
2018-05-16T18:09:52.596Z,19.67
2018-05-16T18:14:07.111Z,26.93
2018-05-16T18:18:09.644Z,28.07
2018-05-16T18:22:12.199Z,29.13
2018-05-16T18:26:14.716Z,25.47
2018-05-16T18:30:17.267Z,23.03
2018-05-16T18:34:19.841Z,28.57
2018-05-16T18:38:22.356Z,25.03
2018-05-16T18:42:25.645Z,17.47
2018-05-16T18:46:28.951Z,22.57
2018-05-16T18:50:32.261Z,25.23
2018-05-16T18:54:35.573Z,24.13
2018-05-16T18:58:38.118Z,22.93
2018-05-16T19:02:40.659Z,23.70
2018-05-16T19:06:43.175Z,22.07
2018-05-16T19:10:45.709Z,19.83
2018-05-16T19:14:49.017Z,27.23
2018-05-16T19:18:51.562Z,29.17
2018-05-16T19:22:54.096Z,27.83
2018-05-16T19:26:56.610Z,29.27
2018-05-16T19:30:59.148Z,22.97
2018-05-16T19:35:02.467Z,27.50
2018-05-16T19:39:05.045Z,28.60
2018-05-16T19:43:08.409Z,27.00
2018-05-16T19:47:10.920Z,30.20
2018-05-16T19:51:14.226Z,28.97
2018-05-16T19:55:17.532Z,31.57
2018-05-16T19:59:20.835Z,29.33
2018-05-16T20:03:24.173Z,27.10
2018-05-16T20:07:26.697Z,30.43
2018-05-16T20:11:29.228Z,30.43
2018-05-16T20:15:31.846Z,29.13
2018-05-16T20:19:34.343Z,26.57
2018-05-16T20:23:36.905Z,24.67
2018-05-16T20:27:39.419Z,29.17
2018-05-16T20:31:41.953Z,23.27
2018-05-16T20:35:44.498Z,26.03
2018-05-16T20:39:47.116Z,30.03
2018-05-16T20:43:49.604Z,29.60
2018-05-16T20:47:52.704Z,28.57
2018-05-16T20:51:56.984Z,22.50
2018-05-16T20:55:59.521Z,24.87
2018-05-16T21:00:02.124Z,22.73
2018-05-16T21:04:04.669Z,23.07
2018-05-16T21:08:07.947Z,28.07
2018-05-16T21:12:11.272Z,28.07
2018-05-16T21:16:14.575Z,26.67
2018-05-16T21:20:17.906Z,26.87
2018-05-16T21:24:20.445Z,29.03
2018-05-16T21:28:22.970Z,33.97
2018-05-16T21:32:25.505Z,32.57
2018-05-16T21:36:28.052Z,28.33
2018-05-16T21:40:30.598Z,25.90
2018-05-16T21:44:33.907Z,29.57
2018-05-16T21:48:37.210Z,24.47
2018-05-16T21:52:40.516Z,22.53
2018-05-16T21:56:43.081Z,30.27
2018-05-16T22:00:45.596Z,28.90
2018-05-16T22:04:48.128Z,28.60
2018-05-16T22:08:50.670Z,27.27
2018-05-16T22:12:53.999Z,30.20
2018-05-16T22:16:56.528Z,26.57
2018-05-16T22:21:00.028Z,30.30
2018-05-16T22:25:02.563Z,34.37
2018-05-16T22:29:05.095Z,30.07
2018-05-16T22:33:13.395Z,27.00
2018-05-16T22:37:21.688Z,40.77
2018-05-16T22:41:29.827Z,27.93
2018-05-16T22:45:36.271Z,29.10
2018-05-16T22:49:38.804Z,26.77
2018-05-16T22:53:41.340Z,27.13
2018-05-16T22:57:43.882Z,27.60
2018-05-16T23:01:46.539Z,30.33
2018-05-16T23:05:49.667Z,30.97
2018-05-16T23:09:52.195Z,29.97
2018-05-16T23:13:54.723Z,29.20
2018-05-16T23:17:57.252Z,28.50
2018-05-16T23:21:59.787Z,33.87
2018-05-16T23:26:02.327Z,31.20
2018-05-16T23:30:04.869Z,27.67
2018-05-16T23:34:07.378Z,28.80
2018-05-16T23:38:09.907Z,36.57
2018-05-16T23:42:12.463Z,26.20
2018-05-16T23:46:14.995Z,32.73
2018-05-16T23:50:17.536Z,31.00
2018-05-16T23:54:20.048Z,27.10
2018-05-16T23:58:22.583Z,27.47
